Time;durP1;ratioP1;P1;durP2;ratioP2;P2;SDS_P1;SDS_P2;PMS_P1;PMS_P2;Temp;Humidity;BMP_temperature;BMP_pressure;BME280_temperature;BME280_humidity;BME280_pressure;Samples;Min_cycle;Max_cycle;Signal;HPM_P1;HPM_P2
2023/06/25 00:02:21;;;;;;;;;0.00;0.00;;;;;26.07;42.35;101558.97;5076195;27;62984;-58
2023/06/25 00:04:47;;;;;;;;;0.00;0.00;;;;;26.06;42.86;101550.94;5075886;27;66133;-58
2023/06/25 00:07:12;;;;;;;;;0.00;0.00;;;;;26.05;42.72;101550.09;5082767;27;45762;-58
2023/06/25 00:09:39;;;;;;;;;0.00;0.00;;;;;25.97;42.68;101547.28;5085698;27;45360;-58
2023/06/25 00:12:05;;;;;;;;;0.00;0.00;;;;;25.88;42.50;101549.09;5086240;27;46438;-59
2023/06/25 00:14:30;;;;;;;;;0.00;0.00;;;;;25.79;43.43;101546.44;5077120;27;45311;-58
2023/06/25 00:16:57;;;;;;;;;0.00;0.00;;;;;25.72;42.97;101544.38;5083640;27;55385;-58
2023/06/25 00:19:24;;;;;;;;;0.00;0.00;;;;;25.71;43.46;101536.38;5078388;28;45295;-58
2023/06/25 00:21:49;;;;;;;;;0.00;0.00;;;;;25.71;43.64;101520.03;5077419;27;46233;-59
2023/06/25 00:24:15;;;;;;;;;0.00;0.00;;;;;25.71;43.26;101534.50;5077841;27;45312;-58
2023/06/25 00:26:45;;;;;;;;;0.00;0.00;;;;;25.72;43.56;101524.44;5078678;27;45449;-58
2023/06/25 00:29:10;;;;;;;;;0.00;0.00;;;;;25.74;43.59;101525.16;5074420;27;45512;-58
2023/06/25 00:31:37;;;;;;;;;0.00;0.00;;;;;25.69;43.58;101527.50;5066099;27;46063;-63
2023/06/25 00:34:02;;;;;;;;;0.00;0.00;;;;;25.57;43.11;101522.28;5076184;28;45459;-62
2023/06/25 00:36:36;;;;;;;;;0.00;0.00;;;;;25.45;43.23;101522.69;5073503;27;45440;-63
2023/06/25 00:39:02;;;;;;;;;0.00;0.00;;;;;25.41;44.22;101523.03;5076190;27;45337;-62
2023/06/25 00:41:27;;;;;;;;;0.00;0.00;;;;;25.42;44.08;101519.31;5089596;27;48279;-62
2023/06/25 00:43:53;;;;;;;;;0.00;0.00;;;;;25.46;43.71;101508.97;5066091;28;61434;-63
2023/06/25 00:46:18;;;;;;;;;0.00;0.00;;;;;25.47;43.57;101513.38;5091898;27;66445;-63
2023/06/25 00:48:47;;;;;;;;;0.00;0.00;;;;;25.51;44.04;101509.31;5077340;27;45400;-62
2023/06/25 00:51:14;;;;;;;;;0.00;0.00;;;;;25.52;43.79;101512.91;5090572;27;47101;-63
2023/06/25 00:53:40;;;;;;;;;0.00;0.00;;;;;25.53;43.83;101510.00;5075296;27;45541;-62
2023/06/25 00:56:06;;;;;;;;;0.00;0.00;;;;;25.54;43.81;101511.72;5092745;27;45663;-62
2023/06/25 00:58:34;;;;;;;;;2.50;2.50;;;;;25.53;43.97;101507.28;5077219;27;45390;-63
2023/06/25 01:01:01;;;;;;;;;0.00;0.00;;;;;25.52;43.87;101508.31;5071608;27;45448;-63
2023/06/25 01:03:30;;;;;;;;;3.00;3.00;;;;;25.55;44.38;101508.00;5075785;27;45421;-63
2023/06/25 01:06:07;;;;;;;;;0.00;0.00;;;;;25.55;43.72;101504.41;5076175;28;45347;-62
2023/06/25 01:08:35;;;;;;;;;0.00;0.00;;;;;25.53;43.66;101493.69;5076269;28;45717;-63
2023/06/25 01:11:02;;;;;;;;;1.00;1.00;;;;;25.47;44.28;101490.75;5078353;28;45495;-63
2023/06/25 01:13:27;;;;;;;;;0.00;0.00;;;;;25.44;44.50;101491.91;5079564;27;45572;-63
2023/06/25 01:15:52;;;;;;;;;0.00;0.00;;;;;25.45;44.10;101498.19;5078984;27;50934;-62
2023/06/25 01:18:18;;;;;;;;;0.00;0.00;;;;;25.40;44.28;101496.81;5079897;27;66693;-62
2023/06/25 01:20:43;;;;;;;;;0.00;0.00;;;;;25.34;44.64;101502.84;5078638;27;46408;-63
2023/06/25 01:23:10;;;;;;;;;0.00;0.00;;;;;25.36;44.11;101502.75;5077403;27;45653;-62
2023/06/25 01:25:36;;;;;;;;;0.00;0.00;;;;;25.39;44.33;101489.66;5085309;27;45438;-62
2023/06/25 01:28:02;;;;;;;;;0.00;0.00;;;;;25.43;44.03;101495.63;5088275;27;45429;-62
2023/06/25 01:30:31;;;;;;;;;0.00;0.00;;;;;25.42;44.62;101492.06;5073292;28;45407;-62
2023/06/25 01:32:57;;;;;;;;;0.00;0.00;;;;;25.40;43.75;101499.53;5079972;27;45559;-62
2023/06/25 01:35:22;;;;;;;;;0.00;0.00;;;;;25.29;44.17;101490.72;5071363;27;47301;-62
2023/06/25 01:37:48;;;;;;;;;0.00;0.00;;;;;25.22;44.66;101491.34;5077363;28;45497;-62
2023/06/25 01:40:13;;;;;;;;;0.00;0.00;;;;;25.17;44.92;101482.78;5075948;27;45351;-62
2023/06/25 01:42:38;;;;;;;;;0.00;0.00;;;;;25.20;44.52;101481.63;5075739;27;62335;-63
2023/06/25 01:45:04;;;;;;;;;0.00;0.00;;;;;25.23;44.57;101484.91;5074327;28;56742;-62
2023/06/25 01:47:29;;;;;;;;;0.00;0.00;;;;;25.26;44.50;101492.72;5078805;27;45571;-62
2023/06/25 01:49:55;;;;;;;;;0.00;0.00;;;;;25.29;44.31;101485.28;5078316;27;45591;-62
2023/06/25 01:52:20;;;;;;;;;0.00;0.00;;;;;25.32;44.92;101488.56;5076876;27;67950;-63
2023/06/25 01:54:46;;;;;;;;;0.00;0.00;;;;;25.33;44.64;101476.66;5079266;27;59585;-62
2023/06/25 01:57:12;;;;;;;;;0.00;0.00;;;;;25.34;44.69;101477.50;5075909;27;45621;-63
2023/06/25 01:59:37;;;;;;;;;10.00;10.00;;;;;25.34;44.58;101466.59;5073533;28;45532;-62
2023/06/25 02:02:02;;;;;;;;;0.00;0.00;;;;;25.33;44.60;101471.22;5075204;27;71948;-62
2023/06/25 02:04:28;;;;;;;;;0.00;0.00;;;;;25.26;44.41;101468.25;5075994;27;45362;-63
2023/06/25 02:06:54;;;;;;;;;0.00;0.00;;;;;25.25;44.79;101458.38;5078405;27;45535;-62
2023/06/25 02:09:19;;;;;;;;;0.00;0.00;;;;;25.24;44.60;101461.28;5094169;27;46240;-62
2023/06/25 02:11:46;;;;;;;;;0.00;0.00;;;;;25.25;44.61;101458.38;5078369;27;45447;-63
2023/06/25 02:14:11;;;;;;;;;0.00;0.00;;;;;25.22;44.68;101450.50;5077681;27;45428;-62
2023/06/25 02:16:36;;;;;;;;;0.00;0.00;;;;;25.18;44.60;101451.84;5071018;27;45457;-63
2023/06/25 02:19:02;;;;;;;;;0.00;0.00;;;;;25.13;45.12;101458.78;5071304;27;50800;-63
2023/06/25 02:21:27;;;;;;;;;0.00;0.00;;;;;25.09;44.79;101452.78;5080227;27;45662;-63
2023/06/25 02:23:52;;;;;;;;;0.00;0.00;;;;;25.08;45.10;101443.78;5069358;27;62362;-62
2023/06/25 02:26:18;;;;;;;;;0.00;0.00;;;;;25.10;45.60;101446.34;5078839;27;45631;-63
2023/06/25 02:28:43;;;;;;;;;0.00;0.00;;;;;25.10;45.03;101439.03;5092218;27;47452;-62
2023/06/25 02:31:08;;;;;;;;;0.00;0.00;;;;;25.07;45.22;101436.63;5077726;28;45402;-62
2023/06/25 02:33:34;;;;;;;;;0.00;0.00;;;;;25.05;45.10;101438.63;5078602;27;57512;-62
2023/06/25 02:35:59;;;;;;;;;0.00;0.00;;;;;25.05;45.39;101437.78;5067241;27;45719;-62
2023/06/25 02:38:24;;;;;;;;;0.00;0.00;;;;;25.06;45.64;101434.06;5077497;27;46412;-62
2023/06/25 02:40:50;;;;;;;;;0.00;0.00;;;;;25.08;45.68;101432.03;5083230;27;57431;-62
2023/06/25 02:43:15;;;;;;;;;0.00;0.00;;;;;25.07;45.55;101431.19;5077083;28;45440;-61
2023/06/25 02:45:40;;;;;;;;;0.00;0.00;;;;;25.06;45.64;101425.91;5078771;27;58452;-61
2023/06/25 02:48:06;;;;;;;;;0.00;0.00;;;;;25.05;45.70;101421.47;5078321;27;45441;-62
2023/06/25 02:50:31;;;;;;;;;0.00;0.00;;;;;25.01;45.51;101425.53;5076053;27;45414;-62
2023/06/25 02:52:58;;;;;;;;;0.00;0.00;;;;;24.99;45.46;101428.41;5073283;28;56011;-62
2023/06/25 02:55:23;;;;;;;;;0.00;0.00;;;;;25.00;45.22;101434.69;5078080;27;45375;-62
2023/06/25 02:57:48;;;;;;;;;0.00;0.00;;;;;24.99;45.39;101432.97;5078534;27;61550;-61
2023/06/25 03:00:14;;;;;;;;;0.00;0.00;;;;;24.95;45.34;101432.41;5078173;27;70216;-62
2023/06/25 03:02:39;;;;;;;;;0.00;0.00;;;;;24.89;45.56;101424.91;5078554;27;45583;-61
2023/06/25 03:05:04;;;;;;;;;0.00;0.00;;;;;24.83;45.74;101429.09;5078142;27;63159;-61
2023/06/25 03:07:30;;;;;;;;;0.00;0.00;;;;;24.76;46.31;101423.41;5073328;27;46291;-61
2023/06/25 03:09:55;;;;;;;;;0.00;0.00;;;;;24.74;46.15;101421.84;5091936;27;45508;-61
2023/06/25 03:12:20;;;;;;;;;0.00;0.00;;;;;24.72;46.13;101422.03;5078592;27;45777;-62
2023/06/25 03:14:46;;;;;;;;;0.00;0.00;;;;;24.67;46.70;101429.78;5079014;27;61043;-61
2023/06/25 03:17:11;;;;;;;;;0.00;0.00;;;;;24.59;46.40;101422.38;5072073;28;59842;-61
2023/06/25 03:19:36;;;;;;;;;0.00;0.00;;;;;24.57;46.76;101409.94;5077008;28;66127;-61
2023/06/25 03:22:02;;;;;;;;;1.00;1.00;;;;;24.55;46.31;101409.25;5093713;27;66049;-61
2023/06/25 03:24:27;;;;;;;;;0.00;0.00;;;;;24.57;46.84;101415.38;5079127;27;45416;-61
2023/06/25 03:26:53;;;;;;;;;0.00;0.00;;;;;24.52;46.81;101415.84;5072882;27;67252;-61
2023/06/25 03:29:18;;;;;;;;;0.00;0.00;;;;;24.50;46.61;101415.13;5078908;27;45836;-61
2023/06/25 03:31:43;;;;;;;;;0.00;0.00;;;;;24.46;46.92;101411.03;5075040;27;63795;-61
2023/06/25 03:34:09;;;;;;;;;0.00;0.00;;;;;24.45;46.98;101415.56;5067521;28;45398;-61
2023/06/25 03:36:34;;;;;;;;;0.00;0.00;;;;;24.40;47.02;101415.19;5075828;28;65233;-61
2023/06/25 03:39:00;;;;;;;;;0.00;0.00;;;;;24.33;47.32;101411.38;5092614;27;59431;-62
2023/06/25 03:41:25;;;;;;;;;0.00;0.00;;;;;24.28;47.22;101413.69;5076166;27;47114;-61
2023/06/25 03:43:51;;;;;;;;;0.00;0.00;;;;;24.29;47.39;101415.41;5074853;28;61886;-61
2023/06/25 03:46:16;;;;;;;;;0.00;0.00;;;;;24.31;46.98;101417.97;5077231;27;46510;-62
2023/06/25 03:48:44;;;;;;;;;0.00;0.00;;;;;24.35;47.46;101417.50;5077848;27;45492;-61
2023/06/25 03:51:10;;;;;;;;;0.00;0.00;;;;;24.36;47.48;101404.78;5077035;27;45404;-61
2023/06/25 03:53:38;;;;;;;;;0.00;0.00;;;;;24.38;47.22;101414.50;5076840;27;50311;-61
2023/06/25 03:56:03;;;;;;;;;0.00;0.00;;;;;24.42;47.42;101398.75;5076278;27;48556;-61
2023/06/25 03:58:29;;;;;;;;;0.00;0.00;;;;;24.42;47.19;101406.91;5093418;27;45412;-61
2023/06/25 04:00:54;;;;;;;;;0.00;0.00;;;;;24.40;47.02;101406.19;5075287;28;59393;-61
2023/06/25 04:03:19;;;;;;;;;0.00;0.00;;;;;24.37;47.23;101411.94;5076270;27;50622;-61
2023/06/25 04:05:45;;;;;;;;;0.00;0.00;;;;;24.34;47.20;101415.81;5077990;27;46498;-61
2023/06/25 04:08:11;;;;;;;;;0.00;0.00;;;;;24.31;47.15;101409.81;5077582;27;45406;-61
2023/06/25 04:10:38;;;;;;;;;0.00;0.00;;;;;24.25;47.25;101411.28;5078530;27;45312;-61
2023/06/25 04:13:03;;;;;;;;;0.00;0.00;;;;;24.25;47.10;101414.84;5090758;27;45561;-61
2023/06/25 04:15:28;;;;;;;;;0.00;0.00;;;;;24.22;47.39;101409.75;5093093;27;73466;-61
2023/06/25 04:17:54;;;;;;;;;0.00;0.00;;;;;24.22;47.38;101409.75;5073432;27;68420;-61
2023/06/25 04:20:19;;;;;;;;;0.00;0.00;;;;;24.25;47.15;101405.88;5069898;27;45445;-61
2023/06/25 04:22:45;;;;;;;;;0.00;0.00;;;;;24.34;47.52;101407.66;5073238;28;45515;-61
2023/06/25 04:25:10;;;;;;;;;0.00;0.00;;;;;24.42;47.17;101406.91;5073142;27;59383;-61
2023/06/25 04:27:35;;;;;;;;;0.00;0.00;;;;;24.48;46.90;101405.41;5072478;27;66060;-61
2023/06/25 04:30:01;;;;;;;;;0.00;0.00;;;;;24.53;47.14;101397.66;5077584;27;45772;-61
2023/06/25 04:32:26;;;;;;;;;0.00;0.00;;;;;24.57;46.76;101391.75;5077371;27;45422;-61
2023/06/25 04:34:51;;;;;;;;;0.00;0.00;;;;;24.63;46.78;101400.28;5073070;27;68052;-61
2023/06/25 04:37:16;;;;;;;;;0.00;0.00;;;;;24.67;46.72;101407.19;5075107;27;47375;-61
2023/06/25 04:39:42;;;;;;;;;0.00;0.00;;;;;24.67;46.58;101399.88;5074438;27;45432;-60
2023/06/25 04:42:07;;;;;;;;;0.00;0.00;;;;;24.66;46.91;101400.88;5076578;28;60597;-60
2023/06/25 04:44:33;;;;;;;;;0.00;0.00;;;;;24.68;46.68;101404.31;5072592;27;61108;-61
2023/06/25 04:46:58;;;;;;;;;0.00;0.00;;;;;24.68;46.96;101393.44;5071630;28;66833;-61
2023/06/25 04:49:23;;;;;;;;;0.00;0.00;;;;;24.68;46.25;101406.16;5077282;28;57570;-61
2023/06/25 04:51:49;;;;;;;;;0.00;0.00;;;;;24.63;46.72;101397.56;5073986;27;45440;-61
2023/06/25 04:54:14;;;;;;;;;0.00;0.00;;;;;24.64;46.58;101404.75;5063857;28;70384;-61
2023/06/25 04:56:40;;;;;;;;;0.00;0.00;;;;;24.67;46.17;101399.88;5074810;27;46557;-61
2023/06/25 04:59:05;;;;;;;;;0.00;0.00;;;;;24.66;46.49;101397.31;5078623;27;46661;-61
2023/06/25 05:01:30;;;;;;;;;0.00;0.00;;;;;24.71;46.77;101405.88;5072784;27;65029;-60
2023/06/25 05:03:56;;;;;;;;;0.00;0.00;;;;;24.77;46.01;101405.25;5087972;27;57923;-61
2023/06/25 05:06:21;;;;;;;;;0.00;0.00;;;;;24.86;45.80;101412.47;5081538;27;45465;-61
2023/06/25 05:08:46;;;;;;;;;0.00;0.00;;;;;24.89;45.84;101409.44;5080899;27;64032;-61
2023/06/25 05:11:12;;;;;;;;;0.00;0.00;;;;;24.93;46.02;101413.53;5081200;27;45638;-61
2023/06/25 05:13:38;;;;;;;;;0.00;0.00;;;;;25.01;46.01;101414.63;5079683;27;63165;-61
2023/06/25 05:16:03;;;;;;;;;0.00;0.00;;;;;25.03;45.55;101408.03;5073256;27;45425;-61
2023/06/25 05:18:29;;;;;;;;;0.00;0.00;;;;;25.06;46.26;101410.41;5081209;27;45436;-60
2023/06/25 05:20:54;;;;;;;;;0.00;0.00;;;;;25.12;45.89;101406.22;5086906;27;56523;-61
2023/06/25 05:23:20;;;;;;;;;0.00;0.00;;;;;25.15;45.82;101405.91;5081151;27;46573;-60
2023/06/25 05:25:45;;;;;;;;;0.00;0.00;;;;;25.15;45.36;101405.91;5074930;28;45579;-61
2023/06/25 05:28:11;;;;;;;;;0.00;0.00;;;;;25.21;45.75;101409.84;5077423;27;54746;-60
2023/06/25 05:30:36;;;;;;;;;0.00;0.00;;;;;25.22;45.16;101406.97;5066942;28;45476;-60
2023/06/25 05:33:02;;;;;;;;;0.00;0.00;;;;;25.26;45.23;101405.63;5078200;28;47687;-61
2023/06/25 05:35:28;;;;;;;;;0.00;0.00;;;;;25.33;45.02;101407.72;5074521;27;45381;-61
2023/06/25 05:37:54;;;;;;;;;0.00;0.00;;;;;25.39;45.12;101402.53;5078203;27;46723;-61
2023/06/25 05:40:20;;;;;;;;;0.00;0.00;;;;;25.44;45.11;101404.78;5063169;28;45300;-61
2023/06/25 05:42:46;;;;;;;;;0.00;0.00;;;;;25.48;44.89;101399.88;5083144;27;45540;-61
2023/06/25 05:45:11;;;;;;;;;0.00;0.00;;;;;25.42;45.18;101402.22;5079748;27;45335;-61
2023/06/25 05:47:36;;;;;;;;;0.00;0.00;;;;;25.77;44.98;101404.97;5095071;27;45442;-61
2023/06/25 05:50:03;;;;;;;;;0.00;0.00;;;;;26.56;43.98;101402.88;5079527;27;45707;-61
2023/06/25 05:52:28;;;;;;;;;0.00;0.00;;;;;26.79;43.04;101410.47;5074650;27;45584;-61
2023/06/25 05:54:53;;;;;;;;;0.00;0.00;;;;;26.69;43.22;101410.59;5079862;27;47043;-61
2023/06/25 05:57:18;;;;;;;;;0.00;0.00;;;;;26.48;42.97;101412.91;5076656;28;61300;-61
2023/06/25 05:59:44;;;;;;;;;0.00;0.00;;;;;26.30;43.25;101411.19;5080299;27;53201;-61
2023/06/25 06:02:09;;;;;;;;;0.00;0.00;;;;;26.23;44.15;101411.00;5079480;27;46352;-61
2023/06/25 06:04:35;;;;;;;;;0.00;0.00;;;;;26.16;43.51;101407.22;5078338;28;55871;-60
2023/06/25 06:07:01;;;;;;;;;0.00;0.00;;;;;26.08;44.00;101416.22;5070190;27;45532;-61
2023/06/25 06:09:26;;;;;;;;;0.00;0.00;;;;;26.07;44.14;101410.94;5096262;27;45615;-62
2023/06/25 06:11:51;;;;;;;;;0.00;0.00;;;;;26.08;44.37;101409.91;5073271;27;71333;-61
2023/06/25 06:14:17;;;;;;;;;0.00;0.00;;;;;26.07;44.10;101411.81;5073895;27;70317;-61
2023/06/25 06:16:42;;;;;;;;;0.00;0.00;;;;;26.07;44.06;101411.81;5077252;28;66171;-62
2023/06/25 06:19:07;;;;;;;;;0.00;0.00;;;;;26.08;43.94;101412.63;5077794;27;64407;-60
2023/06/25 06:21:33;;;;;;;;;0.00;0.00;;;;;26.02;44.17;101405.97;5079552;27;45524;-62
2023/06/25 06:23:58;;;;;;;;;0.00;0.00;;;;;26.03;44.21;101396.72;5075107;27;70880;-61
2023/06/25 06:26:23;;;;;;;;;0.00;0.00;;;;;26.04;43.88;101400.38;5079927;27;45464;-61
2023/06/25 06:28:49;;;;;;;;;0.00;0.00;;;;;26.05;44.68;101402.09;5086538;27;45411;-61
2023/06/25 06:31:14;;;;;;;;;0.00;0.00;;;;;26.04;44.52;101397.63;5076503;27;73773;-61
2023/06/25 06:33:39;;;;;;;;;0.00;0.00;;;;;26.12;44.92;101391.38;5079750;27;45479;-61
2023/06/25 06:36:05;;;;;;;;;0.00;0.00;;;;;26.34;44.16;101387.19;5076005;27;67260;-61
2023/06/25 06:38:30;;;;;;;;;0.00;0.00;;;;;28.51;43.63;101382.88;5076197;27;64888;-61
2023/06/25 06:40:55;;;;;;;;;0.00;0.00;;;;;31.89;39.17;101374.75;5077453;28;64065;-61
2023/06/25 06:43:21;;;;;;;;;0.00;0.00;;;;;35.15;34.85;101375.41;5079639;27;45364;-62
2023/06/25 06:45:46;;;;;;;;;0.00;0.00;;;;;37.96;30.72;101382.34;5076855;27;67533;-61
2023/06/25 06:48:11;;;;;;;;;0.00;0.00;;;;;40.33;29.30;101385.22;5074388;27;66169;-62
2023/06/25 06:50:37;;;;;;;;;0.00;0.00;;;;;41.98;26.47;101390.03;5077697;27;45608;-62
2023/06/25 06:53:02;;;;;;;;;0.00;0.00;;;;;43.36;23.93;101386.75;5077186;28;65172;-62
2023/06/25 06:55:27;;;;;;;;;0.00;0.00;;;;;44.58;22.49;101390.06;5079577;27;45665;-63
2023/06/25 06:57:53;;;;;;;;;0.00;0.00;;;;;45.33;21.44;101384.31;5076945;27;60228;-63
2023/06/25 07:00:18;;;;;;;;;0.00;0.00;;;;;45.64;20.76;101393.22;5076627;27;69708;-63
2023/06/25 07:02:44;;;;;;;;;0.00;0.00;;;;;46.21;20.39;101387.69;5077129;27;45493;-63
2023/06/25 07:05:10;;;;;;;;;0.50;0.50;;;;;47.08;19.28;101384.56;5077045;27;45274;-63
2023/06/25 07:07:36;;;;;;;;;0.00;0.00;;;;;47.62;18.31;101384.91;5077344;27;45450;-63
2023/06/25 07:10:01;;;;;;;;;0.00;0.00;;;;;48.44;17.95;101376.56;5077978;27;45416;-63
2023/06/25 07:12:27;;;;;;;;;0.00;0.00;;;;;48.97;16.44;101379.72;5076825;27;45501;-63
2023/06/25 07:14:52;;;;;;;;;0.00;0.00;;;;;49.29;15.54;101387.03;5077073;27;45428;-64
2023/06/25 07:17:17;;;;;;;;;0.00;0.00;;;;;49.54;12.69;101386.59;5068126;27;45699;-64
2023/06/25 07:19:43;;;;;;;;;0.00;0.00;;;;;49.51;14.63;101382.44;5082186;27;46250;-63
2023/06/25 07:22:08;;;;;;;;;0.00;0.00;;;;;49.61;15.77;101386.94;5059133;28;52067;-64
2023/06/25 07:24:33;;;;;;;;;0.00;0.00;;;;;49.95;15.35;101382.50;5077385;27;59232;-64
2023/06/25 07:26:59;;;;;;;;;0.00;0.00;;;;;50.39;13.41;101383.38;5076454;27;45508;-64
2023/06/25 07:29:24;;;;;;;;;0.00;0.00;;;;;50.60;13.94;101377.88;5079090;27;46261;-64
2023/06/25 07:31:50;;;;;;;;;0.00;0.00;;;;;50.81;14.59;101374.31;5072692;27;46079;-64
2023/06/25 07:34:15;;;;;;;;;0.00;0.00;;;;;51.20;13.87;101378.00;5070892;27;45756;-63
2023/06/25 07:36:40;;;;;;;;;0.00;0.00;;;;;51.54;14.03;101376.19;5072766;27;45442;-63
2023/06/25 07:39:06;;;;;;;;;0.00;0.00;;;;;51.76;12.28;101383.56;5078813;27;55258;-63
2023/06/25 07:41:31;;;;;;;;;0.00;0.00;;;;;52.14;12.33;101376.06;5079351;27;62655;-63
2023/06/25 07:43:57;;;;;;;;;0.00;0.00;;;;;52.49;12.47;101374.94;5066067;27;45410;-64
2023/06/25 07:46:22;;;;;;;;;0.00;0.00;;;;;52.73;12.24;101369.31;5077487;27;61057;-64
2023/06/25 07:48:48;;;;;;;;;0.00;0.00;;;;;53.08;11.60;101374.56;5078208;27;46545;-64
2023/06/25 07:51:13;;;;;;;;;0.00;0.00;;;;;52.99;11.36;101365.34;5076634;28;49161;-64
2023/06/25 07:53:38;;;;;;;;;0.00;0.00;;;;;52.96;12.03;101368.06;5075583;28;66695;-64
2023/06/25 07:56:04;;;;;;;;;0.00;0.00;;;;;52.93;11.66;101367.56;5089279;27;45367;-64
2023/06/25 07:58:29;;;;;;;;;0.00;0.00;;;;;52.56;11.26;101358.19;5066222;27;68604;-64
2023/06/25 08:00:55;;;;;;;;;0.00;0.00;;;;;52.60;11.34;101359.13;5075678;28;45527;-64
2023/06/25 08:03:22;;;;;;;;;0.00;0.00;;;;;52.80;11.58;101359.41;5075917;27;67026;-64
2023/06/25 08:05:47;;;;;;;;;0.00;0.00;;;;;52.88;11.22;101364.16;5073826;28;45389;-64
2023/06/25 08:08:13;;;;;;;;;0.00;0.00;;;;;52.87;10.64;101365.31;5076595;27;45620;-64
2023/06/25 08:10:38;;;;;;;;;0.00;0.00;;;;;52.26;9.83;101361.97;5075685;27;45445;-64
2023/06/25 08:13:03;;;;;;;;;0.00;0.00;;;;;51.93;10.68;101359.91;5074896;27;67395;-64
2023/06/25 08:15:28;;;;;;;;;0.00;0.00;;;;;52.28;11.49;101361.59;5075517;28;64335;-65
2023/06/25 08:17:54;;;;;;;;;0.00;0.00;;;;;52.53;11.72;101356.88;5073195;27;64525;-64
2023/06/25 08:20:19;;;;;;;;;0.00;0.00;;;;;52.51;11.31;101352.72;5080083;27;69712;-64
2023/06/25 08:22:44;;;;;;;;;0.00;0.00;;;;;52.56;11.60;101346.84;5075896;27;66747;-63
2023/06/25 08:25:21;;;;;;;;;0.00;0.00;;;;;52.57;11.70;101342.78;5068601;27;45678;-64
2023/06/25 08:27:46;;;;;;;;;0.00;0.00;;;;;52.51;11.48;101347.06;5072496;27;46986;-63
2023/06/25 08:30:12;;;;;;;;;0.00;0.00;;;;;52.47;12.25;101341.25;5081300;27;45304;-63
2023/06/25 08:32:37;;;;;;;;;0.00;0.00;;;;;52.42;11.39;101347.13;5073443;27;45448;-65
2023/06/25 08:35:03;;;;;;;;;0.00;0.00;;;;;52.03;11.11;101344.47;5080679;27;45416;-63
2023/06/25 08:37:28;;;;;;;;;0.00;0.00;;;;;52.04;11.40;101337.63;5070007;27;45654;-64
2023/06/25 08:39:54;;;;;;;;;0.00;0.00;;;;;51.97;9.32;101348.69;5063997;27;45567;-64
2023/06/25 08:42:19;;;;;;;;;1.00;1.00;;;;;51.71;11.27;101335.56;5080783;27;45452;-64
2023/06/25 08:44:44;;;;;;;;;0.00;0.00;;;;;51.67;9.99;101340.22;5080611;28;60282;-65
2023/06/25 08:47:11;;;;;;;;;0.00;0.00;;;;;51.59;10.20;101326.97;5083064;27;52923;-64
2023/06/25 08:49:41;;;;;;;;;0.00;0.00;;;;;51.74;10.87;101325.53;5064643;27;61254;-65
2023/06/25 08:52:09;;;;;;;;;0.00;0.00;;;;;51.78;10.24;101321.69;5077893;28;45318;-66
2023/06/25 08:54:34;;;;;;;;;0.00;0.00;;;;;51.90;10.50;101320.91;5080615;28;45367;-66
2023/06/25 08:57:00;;;;;;;;;0.00;0.00;;;;;52.01;10.28;101317.66;5081143;27;53409;-66
2023/06/25 08:59:25;;;;;;;;;0.00;0.00;;;;;52.04;11.30;101320.63;5081940;28;45326;-62
2023/06/25 09:01:51;;;;;;;;;0.00;0.00;;;;;51.77;11.10;101325.69;5091989;27;45373;-62
2023/06/25 09:04:16;;;;;;;;;0.00;0.00;;;;;51.85;9.68;101320.31;5076941;28;65113;-62
2023/06/25 09:06:42;;;;;;;;;0.00;0.00;;;;;51.77;11.20;101322.84;5072253;27;45432;-63
2023/06/25 09:09:10;;;;;;;;;0.00;0.00;;;;;51.62;10.60;101307.28;5062618;28;45626;-63
2023/06/25 09:11:40;;;;;;;;;0.00;0.00;;;;;51.41;9.98;101312.97;5081335;27;45428;-65
2023/06/25 09:14:06;;;;;;;;;0.00;0.00;;;;;50.89;9.76;101310.34;5081228;27;45462;-64
2023/06/25 09:16:32;;;;;;;;;0.00;0.00;;;;;50.64;9.26;101308.13;5085260;27;53102;-64
2023/06/25 09:19:00;;;;;;;;;0.00;0.00;;;;;50.22;10.67;101298.56;5072649;27;45417;-64
2023/06/25 09:21:36;;;;;;;;;0.00;0.00;;;;;50.10;10.14;101299.25;5074045;27;46029;-64
2023/06/25 09:24:17;;;;;;;;;0.00;0.00;;;;;50.04;10.60;101294.94;5070344;28;45440;-60
2023/06/25 09:26:48;;;;;;;;;0.00;0.00;;;;;50.25;10.05;101295.06;5079714;28;46923;-61
2023/06/25 09:29:15;;;;;;;;;0.00;0.00;;;;;50.48;11.05;101290.03;5078486;27;45444;-60
2023/06/25 09:31:42;;;;;;;;;0.00;0.00;;;;;50.50;11.16;101295.34;5077580;27;45804;-61
2023/06/25 09:34:08;;;;;;;;;0.00;0.00;;;;;50.36;10.63;101289.94;5080874;27;45359;-61
2023/06/25 09:36:33;;;;;;;;;0.00;0.00;;;;;50.26;10.08;101289.09;5076468;27;45588;-61
2023/06/25 09:38:59;;;;;;;;;0.00;0.00;;;;;50.28;11.18;101283.09;5081414;27;45633;-62
2023/06/25 09:41:25;;;;;;;;;0.00;0.00;;;;;50.19;10.52;101282.28;5079846;27;53013;-61
2023/06/25 09:43:53;;;;;;;;;0.00;0.00;;;;;49.94;11.21;101284.78;5083132;27;48713;-61
2023/06/25 09:46:19;;;;;;;;;0.00;0.00;;;;;49.71;11.44;101284.94;5090236;27;46752;-64
2023/06/25 09:48:45;;;;;;;;;0.00;0.00;;;;;49.03;10.49;101288.13;5071295;28;65749;-64
2023/06/25 09:51:12;;;;;;;;;0.00;0.00;;;;;48.24;11.06;101286.88;5095081;27;68016;-64
2023/06/25 09:53:39;;;;;;;;;0.00;0.00;;;;;47.85;11.45;101281.59;5080079;27;45276;-64
2023/06/25 09:56:06;;;;;;;;;0.00;0.00;;;;;47.72;11.80;101262.75;5078912;27;46150;-63
2023/06/25 09:58:31;;;;;;;;;0.00;0.00;;;;;47.29;11.56;101277.19;5072086;27;59585;-63
2023/06/25 10:00:57;;;;;;;;;0.00;0.00;;;;;47.36;12.44;101269.16;5076944;27;45421;-66
2023/06/25 10:03:23;;;;;;;;;0.00;0.00;;;;;47.62;12.49;101265.81;5076758;27;60485;-64
2023/06/25 10:05:51;;;;;;;;;0.00;0.00;;;;;47.69;11.18;101266.19;5095865;27;45683;-64
2023/06/25 10:08:18;;;;;;;;;0.00;0.00;;;;;47.33;11.98;101261.34;5077097;28;45475;-64
2023/06/25 10:10:55;;;;;;;;;0.00;0.00;;;;;47.24;12.72;101255.63;5076744;27;45580;-65
2023/06/25 10:13:21;;;;;;;;;0.00;0.00;;;;;47.31;12.13;101252.38;5073182;27;45375;-64
2023/06/25 10:15:47;;;;;;;;;0.00;0.00;;;;;47.03;11.97;101256.03;5071097;28;53635;-64
2023/06/25 10:18:22;;;;;;;;;0.00;0.00;;;;;46.74;12.74;101250.72;5065163;28;60747;-64
2023/06/25 10:20:47;;;;;;;;;0.00;0.00;;;;;46.77;12.69;101252.09;5076117;27;45496;-64
2023/06/25 10:23:13;;;;;;;;;0.00;0.00;;;;;47.18;12.64;101260.53;5065653;27;45428;-64
2023/06/25 10:25:52;;;;;;;;;0.00;0.00;;;;;47.29;12.15;101255.53;5073265;27;46236;-64
2023/06/25 10:28:18;;;;;;;;;0.00;0.00;;;;;47.02;12.65;101256.38;5080878;27;45570;-65
2023/06/25 10:30:48;;;;;;;;;0.00;0.00;;;;;46.81;12.29;101256.78;5084394;27;61237;-64
2023/06/25 10:33:15;;;;;;;;;0.00;0.00;;;;;46.61;12.43;101257.16;5077413;27;45563;-64
2023/06/25 10:35:42;;;;;;;;;1.00;1.00;;;;;46.16;12.92;101255.69;5073636;28;46166;-65
2023/06/25 10:38:08;;;;;;;;;0.00;0.00;;;;;46.17;12.41;101253.69;5074210;27;45357;-66
2023/06/25 10:40:35;;;;;;;;;0.00;0.00;;;;;46.20;12.92;101241.84;5078690;27;45734;-66
2023/06/25 10:43:00;;;;;;;;;0.00;0.00;;;;;46.00;12.65;101241.06;5052595;28;45617;-67
2023/06/25 10:45:26;;;;;;;;;0.00;0.00;;;;;45.92;12.95;101236.13;5074596;27;45479;-67
2023/06/25 10:48:10;;;;;;;;;0.00;0.00;;;;;45.80;12.93;101233.75;5085189;27;45865;-54
2023/06/25 10:50:35;;;;;;;;;0.00;0.00;;;;;45.36;13.52;101229.34;5081134;27;45514;-53
2023/06/25 10:53:02;;;;;;;;;0.00;0.00;;;;;45.56;13.03;101231.06;5074200;27;45335;-51
2023/06/25 10:55:28;;;;;;;;;0.00;0.00;;;;;45.74;13.37;101227.41;5070924;28;46510;-54
2023/06/25 10:57:56;;;;;;;;;0.00;0.00;;;;;45.96;13.05;101230.75;5074362;28;45387;-53
2023/06/25 11:00:23;;;;;;;;;0.00;0.00;;;;;46.04;13.51;101216.84;5082303;27;45661;-54
2023/06/25 11:02:50;;;;;;;;;0.00;0.00;;;;;46.05;13.22;101218.50;5080944;27;45544;-53
2023/06/25 11:05:16;;;;;;;;;0.00;0.00;;;;;45.76;13.27;101221.47;5073763;27;45632;-54
2023/06/25 11:07:41;;;;;;;;;0.00;0.00;;;;;45.51;13.26;101217.94;5075331;28;45449;-52
2023/06/25 11:10:07;;;;;;;;;0.00;0.00;;;;;45.39;13.83;101211.91;5079297;27;45341;-52
2023/06/25 11:12:32;;;;;;;;;0.00;0.00;;;;;45.32;13.74;101217.06;5079776;27;45778;-53
2023/06/25 11:14:58;;;;;;;;;0.00;0.00;;;;;45.31;13.25;101219.06;5071410;28;67498;-53
2023/06/25 11:17:23;;;;;;;;;0.00;0.00;;;;;45.00;13.05;101215.78;5079098;27;45709;-55
2023/06/25 11:19:52;;;;;;;;;0.00;0.00;;;;;44.66;13.25;101206.34;5084468;27;64095;-53